Time;durP1;ratioP1;P1;durP2;ratioP2;P2;SDS_P1;SDS_P2;PMS_P1;PMS_P2;Temp;Humidity;BMP_temperature;BMP_pressure;BME280_temperature;BME280_humidity;BME280_pressure;Samples;Min_cycle;Max_cycle;Signal;HPM_P1;HPM_P2
2024/04/13 00:01:24;;;;;;;13.95;7.00;;;;;;;9.22;100.00;102433.31;5205779;27;20042;-75
2024/04/13 00:03:53;;;;;;;12.68;7.28;;;;;;;9.23;100.00;102431.47;5208494;27;20870;-79
2024/04/13 00:06:19;;;;;;;14.38;8.30;;;;;;;9.21;100.00;102421.00;5232804;27;20006;-80
2024/04/13 00:08:45;;;;;;;15.70;7.90;;;;;;;9.20;100.00;102421.19;5233018;27;20021;-77
2024/04/13 00:11:11;;;;;;;19.38;8.70;;;;;;;9.18;100.00;102420.59;5215469;27;20014;-74
2024/04/13 00:13:38;;;;;;;17.35;9.55;;;;;;;9.17;100.00;102421.66;5232779;27;20002;-76
2024/04/13 00:16:04;;;;;;;14.93;8.40;;;;;;;9.16;100.00;102420.00;5196488;27;20028;-76
2024/04/13 00:18:34;;;;;;;17.25;7.30;;;;;;;9.13;100.00;102412.41;5233093;27;20060;-80
2024/04/13 00:21:02;;;;;;;19.08;7.75;;;;;;;9.12;100.00;102408.13;5231388;27;20002;-76
2024/04/13 00:23:27;;;;;;;13.38;7.93;;;;;;;9.09;100.00;102397.88;5202951;27;20014;-75
2024/04/13 00:25:56;;;;;;;16.25;8.18;;;;;;;9.07;100.00;102394.59;5198258;27;20021;-76
2024/04/13 00:28:22;;;;;;;12.77;7.32;;;;;;;9.06;100.00;102398.31;5234261;27;20799;-73
2024/04/13 00:30:47;;;;;;;19.40;9.07;;;;;;;9.04;100.00;102390.50;5208405;27;20018;-74
2024/04/13 00:33:13;;;;;;;15.55;7.93;;;;;;;9.03;100.00;102386.19;5208201;27;20337;-75
2024/04/13 00:35:39;;;;;;;13.85;8.35;;;;;;;9.05;100.00;102397.47;5237485;27;20125;-74
2024/04/13 00:38:05;;;;;;;12.10;7.38;;;;;;;9.03;100.00;102405.72;5232848;27;20359;-76
2024/04/13 00:40:32;;;;;;;13.23;6.95;;;;;;;9.03;100.00;102400.38;5252433;27;20003;-76
2024/04/13 00:43:08;;;;;;;12.05;7.18;;;;;;;9.02;100.00;102393.41;5231007;27;20006;-75
2024/04/13 00:45:42;;;;;;;13.73;7.28;;;;;;;9.02;100.00;102393.41;5251484;27;20022;-74
2024/04/13 00:48:13;;;;;;;11.75;7.57;;;;;;;8.98;100.00;102381.50;5232186;27;20368;-75
2024/04/13 00:50:42;;;;;;;11.38;6.65;;;;;;;8.97;100.00;102387.88;5258763;27;20011;-73
2024/04/13 00:53:11;;;;;;;13.07;6.93;;;;;;;8.97;100.00;102393.22;5230373;27;20413;-75
2024/04/13 00:55:40;;;;;;;12.13;6.20;;;;;;;8.96;100.00;102382.78;5261433;27;20010;-80
2024/04/13 00:58:07;;;;;;;14.27;6.78;;;;;;;8.94;100.00;102368.78;5237847;27;20062;-78
2024/04/13 01:00:33;;;;;;;16.80;6.45;;;;;;;8.95;100.00;102368.59;5266366;27;20403;-76
2024/04/13 01:03:00;;;;;;;15.00;6.32;;;;;;;8.94;100.00;102364.28;5210089;27;20081;-82
2024/04/13 01:05:27;;;;;;;11.90;6.05;;;;;;;8.94;100.00;102374.97;5248009;27;20007;-79
2024/04/13 01:07:54;;;;;;;10.57;5.60;;;;;;;8.91;100.00;102354.03;5260070;27;20006;-78
2024/04/13 01:10:21;;;;;;;11.20;6.43;;;;;;;8.90;100.00;102365.75;5232139;27;20452;-78
2024/04/13 01:12:48;;;;;;;11.60;6.28;;;;;;;8.90;100.00;102364.94;5235736;27;20006;-79
2024/04/13 01:15:17;;;;;;;11.05;5.53;;;;;;;8.91;100.00;102364.72;5268379;27;20053;-79
2024/04/13 01:17:43;;;;;;;12.25;6.28;;;;;;;8.90;100.00;102363.09;5206716;27;20006;-76
2024/04/13 01:20:09;;;;;;;;;;;;;;;8.90;100.00;102368.44;5203167;27;20013;-77
2024/04/13 01:22:43;;;;;;;9.35;5.43;;;;;;;8.91;100.00;102363.91;5259855;27;19971;-76
2024/04/13 01:25:10;;;;;;;11.80;5.97;;;;;;;8.89;100.00;102356.09;5261178;27;20018;-79
2024/04/13 01:27:36;;;;;;;11.00;5.70;;;;;;;8.89;100.00;102355.28;5223015;27;20007;-76
2024/04/13 01:30:02;;;;;;;9.65;5.20;;;;;;;8.88;100.00;102354.47;5260526;27;20026;-76
2024/04/13 01:32:30;;;;;;;10.27;5.40;;;;;;;8.87;100.00;102350.16;5206671;27;20010;-76
2024/04/13 01:35:15;;;;;;;10.73;4.68;;;;;;;8.87;100.00;102350.16;5262292;27;20879;-75
2024/04/13 01:37:42;;;;;;;9.70;4.97;;;;;;;8.85;100.00;102354.91;5236389;27;20495;-75
2024/04/13 01:40:10;;;;;;;10.80;6.35;;;;;;;8.84;100.00;102355.13;5247342;27;20029;-78
2024/04/13 01:42:37;;;;;;;6.63;4.30;;;;;;;8.82;100.00;102350.00;5226728;27;20020;-75
2024/04/13 01:45:03;;;;;;;8.68;5.45;;;;;;;8.82;100.00;102350.00;5231068;27;20078;-77
2024/04/13 01:47:30;;;;;;;11.15;5.18;;;;;;;8.84;100.00;102344.44;5224759;27;19999;-77
2024/04/13 01:49:56;;;;;;;8.80;4.78;;;;;;;8.82;100.00;102338.50;5224358;27;20002;-77
2024/04/13 01:52:21;;;;;;;13.23;5.30;;;;;;;8.81;100.00;102343.03;5250270;27;19999;-77
2024/04/13 01:54:47;;;;;;;10.80;5.00;;;;;;;8.81;100.00;102332.34;5227279;27;20528;-76
2024/04/13 01:57:13;;;;;;;;;;;;;;;8.80;100.00;102338.69;5178923;27;19999;-77
2024/04/13 01:59:42;;;;;;;8.68;4.30;;;;;;;8.78;100.00;102346.13;5233355;27;20050;-74
2024/04/13 02:02:12;;;;;;;8.80;4.78;;;;;;;8.77;100.00;102341.81;5200180;27;20471;-75
2024/04/13 02:04:37;;;;;;;9.02;4.70;;;;;;;8.75;100.00;102343.91;5251983;27;20021;-79
2024/04/13 02:07:04;;;;;;;10.85;5.15;;;;;;;8.75;100.00;102338.56;5204628;27;20002;-74
2024/04/13 02:09:33;;;;;;;9.38;4.93;;;;;;;8.71;100.00;102337.34;5240395;27;20025;-74
2024/04/13 02:12:00;;;;;;;10.80;5.13;;;;;;;8.71;100.00;102332.81;5239231;27;20011;-74
2024/04/13 02:14:26;;;;;;;11.35;5.70;;;;;;;8.73;100.00;102327.25;5266168;27;20002;-75
2024/04/13 02:16:53;;;;;;;8.98;5.38;;;;;;;8.72;100.00;102328.28;5267101;27;20006;-75
2024/04/13 02:19:20;;;;;;;8.52;5.38;;;;;;;8.75;100.00;102325.19;5223493;27;20418;-76
2024/04/13 02:21:48;;;;;;;11.13;5.32;;;;;;;8.77;100.00;102320.44;5253460;27;20081;-75
2024/04/13 02:24:13;;;;;;;9.82;5.10;;;;;;;8.77;100.00;102323.13;5199448;27;20011;-77
2024/04/13 02:26:39;;;;;;;12.50;5.15;;;;;;;8.77;100.00;102320.44;5222206;27;20007;-76
2024/04/13 02:29:05;;;;;;;8.02;4.28;;;;;;;8.78;100.00;102332.75;5221250;27;20973;-75
2024/04/13 02:31:31;;;;;;;8.73;4.00;;;;;;;8.77;100.00;102325.78;5265790;27;20011;-75
2024/04/13 02:33:57;;;;;;;9.57;3.95;;;;;;;8.76;100.00;102321.50;5210553;27;20873;-78
2024/04/13 02:36:23;;;;;;;10.30;4.55;;;;;;;8.74;100.00;102319.03;5232993;27;20067;-74
2024/04/13 02:38:50;;;;;;;8.80;4.47;;;;;;;8.77;100.00;102323.13;5180917;27;20006;-75
2024/04/13 02:41:15;;;;;;;6.80;4.53;;;;;;;8.73;100.00;102322.72;5225274;27;20016;-75
2024/04/13 02:43:41;;;;;;;5.95;3.90;;;;;;;8.73;100.00;102313.91;5197403;27;20002;-76
2024/04/13 02:46:08;;;;;;;7.40;4.05;;;;;;;8.74;100.00;102318.22;5200960;27;20077;-75
2024/04/13 02:48:35;;;;;;;8.45;3.65;;;;;;;8.74;100.00;102311.03;5271234;26;20456;-75
2024/04/13 02:51:00;;;;;;;8.68;3.80;;;;;;;8.75;100.00;102301.16;5200573;27;20006;-74
2024/04/13 02:53:26;;;;;;;6.80;3.78;;;;;;;8.76;100.00;102313.47;5255115;27;20047;-75
2024/04/13 02:55:53;;;;;;;6.68;3.85;;;;;;;8.76;100.00;102308.13;5251087;27;20042;-75
2024/04/13 02:58:19;;;;;;;6.30;3.65;;;;;;;8.75;100.00;102307.31;5255678;27;20002;-75
2024/04/13 03:00:56;;;;;;;8.10;3.90;;;;;;;8.77;100.00;102312.44;5259832;27;20017;-75
2024/04/13 03:03:23;;;;;;;6.85;4.25;;;;;;;8.77;100.00;102315.09;5236214;27;20022;-75
2024/04/13 03:06:04;;;;;;;7.60;4.00;;;;;;;8.78;100.00;102305.25;5207961;27;20006;-75
2024/04/13 03:08:33;;;;;;;7.45;3.85;;;;;;;8.79;100.00;102306.88;5239070;27;20010;-75
2024/04/13 03:11:01;;;;;;;8.18;4.13;;;;;;;8.77;100.00;102304.41;5229698;27;20058;-74
2024/04/13 03:13:28;;;;;;;7.60;3.45;;;;;;;8.78;100.00;102306.06;5264693;27;20093;-75
2024/04/13 03:16:05;;;;;;;6.70;3.45;;;;;;;8.76;100.00;102305.47;5204354;27;20006;-76
2024/04/13 03:18:34;;;;;;;7.45;3.42;;;;;;;8.77;100.00;102299.09;5228669;27;20083;-74
2024/04/13 03:21:01;;;;;;;7.38;3.35;;;;;;;8.76;100.00;102302.78;5193584;27;20018;-75
2024/04/13 03:23:28;;;;;;;6.97;3.88;;;;;;;8.78;100.00;102305.25;5253658;27;20035;-73
2024/04/13 03:25:54;;;;;;;7.18;3.60;;;;;;;8.77;100.00;102300.94;5168845;27;20010;-75
2024/04/13 03:28:24;;;;;;;7.97;4.18;;;;;;;8.79;100.00;102305.00;5227180;27;20010;-74
2024/04/13 03:30:50;;;;;;;7.57;3.72;;;;;;;8.80;100.00;102301.28;5239607;27;20042;-73
2024/04/13 03:33:16;;;;;;;6.40;3.38;;;;;;;8.82;100.00;102304.59;5210080;27;20057;-75
2024/04/13 03:35:42;;;;;;;5.63;3.38;;;;;;;8.84;100.00;102305.19;5196502;27;20476;-76
2024/04/13 03:38:08;;;;;;;6.32;3.17;;;;;;;8.88;100.00;102302.91;5230906;27;20022;-74
2024/04/13 03:40:37;;;;;;;7.18;4.13;;;;;;;8.89;100.00;102318.69;5237683;27;20031;-73
2024/04/13 03:43:03;;;;;;;9.35;3.30;;;;;;;8.93;100.00;102319.06;5236136;27;20010;-74
2024/04/13 03:45:29;;;;;;;8.63;4.50;;;;;;;8.94;100.00;102302.00;5254539;27;20018;-75
2024/04/13 03:47:55;;;;;;;9.73;3.83;;;;;;;8.93;100.00;102301.19;5232085;27;20006;-76
2024/04/13 03:50:22;;;;;;;9.65;4.47;;;;;;;8.97;100.00;102290.88;5257995;27;20018;-74
2024/04/13 03:52:48;;;;;;;6.10;3.63;;;;;;;9.01;100.00;102298.25;5258408;27;20245;-74
2024/04/13 03:55:14;;;;;;;8.90;3.70;;;;;;;9.03;100.00;102301.50;5203495;27;20021;-73
2024/04/13 03:57:39;;;;;;;10.07;4.05;;;;;;;9.03;100.00;102301.50;5264623;27;20003;-75
2024/04/13 04:00:06;;;;;;;6.43;3.35;;;;;;;9.06;100.00;102300.22;5235189;27;20038;-74
2024/04/13 04:02:36;;;;;;;7.47;4.20;;;;;;;9.07;100.00;102293.84;5204933;27;20003;-76
2024/04/13 04:05:03;;;;;;;7.28;3.67;;;;;;;9.17;100.00;102296.84;5239265;27;20013;-74
2024/04/13 04:07:29;;;;;;;6.55;4.10;;;;;;;9.23;100.00;102297.81;5225355;27;20007;-75
2024/04/13 04:09:55;;;;;;;9.52;4.68;;;;;;;9.17;100.00;102282.66;5239186;21;20011;-71
2024/04/13 04:12:21;;;;;;;10.15;4.72;;;;;;;9.28;100.00;102284.59;5295437;26;20523;-71
2024/04/13 04:14:47;;;;;;;8.63;3.85;;;;;;;9.36;100.00;102286.97;5351933;26;20017;-72
2024/04/13 04:17:13;;;;;;;7.30;4.20;;;;;;;9.46;100.00;102276.53;5333268;26;20016;-73
2024/04/13 04:19:38;;;;;;;8.00;4.22;;;;;;;9.54;100.00;102284.25;5335179;26;20005;-72
2024/04/13 04:22:04;;;;;;;5.90;3.72;;;;;;;9.51;100.00;102287.41;5360240;26;19997;-72
2024/04/13 04:24:30;;;;;;;5.65;3.50;;;;;;;9.49;100.00;102291.34;5338705;26;20011;-71
2024/04/13 04:26:55;;;;;;;7.15;3.63;;;;;;;9.45;100.00;102293.63;5342218;26;20023;-74
2024/04/13 04:29:21;;;;;;;6.65;3.88;;;;;;;9.44;100.00;102291.19;5338021;26;20385;-72
2024/04/13 04:31:46;;;;;;;7.32;4.03;;;;;;;9.43;100.00;102282.34;5300363;26;20052;-71
2024/04/13 04:34:12;;;;;;;11.73;4.00;;;;;;;9.42;100.00;102294.09;5315015;26;20097;-71
2024/04/13 04:36:41;;;;;;;7.82;3.63;;;;;;;9.38;100.00;102289.41;5334321;26;20004;-72
2024/04/13 04:39:07;;;;;;;6.32;3.42;;;;;;;9.38;100.00;102295.56;5362232;26;20024;-71
2024/04/13 04:41:32;;;;;;;6.00;3.63;;;;;;;9.35;100.00;102289.84;5334223;26;20021;-72
2024/04/13 04:43:58;;;;;;;10.63;3.85;;;;;;;9.32;100.00;102287.63;5354326;26;20549;-73
2024/04/13 04:46:23;;;;;;;6.63;3.47;;;;;;;9.31;100.00;102289.47;5335819;26;20009;-74
2024/04/13 04:48:50;;;;;;;7.03;3.47;;;;;;;9.29;100.00;102292.38;5334248;26;20017;-73
2024/04/13 04:51:17;;;;;;;6.72;3.40;;;;;;;9.28;100.00;102279.25;5336799;26;20013;-72
2024/04/13 04:53:43;;;;;;;6.03;3.83;;;;;;;9.29;100.00;102286.22;5336414;26;20016;-72
2024/04/13 04:56:09;;;;;;;7.00;3.95;;;;;;;9.28;100.00;102292.63;5334284;26;20005;-74
2024/04/13 04:58:35;;;;;;;8.25;3.85;;;;;;;9.27;100.00;102282.94;5332801;26;20036;-72
2024/04/13 05:01:02;;;;;;;6.65;3.60;;;;;;;9.27;100.00;102285.63;5329504;26;20036;-72
2024/04/13 05:03:28;;;;;;;7.90;4.10;;;;;;;9.27;100.00;102280.25;5363867;26;20089;-73
2024/04/13 05:05:54;;;;;;;8.40;4.38;;;;;;;9.28;100.00;102277.38;5303165;26;20017;-73
2024/04/13 05:08:20;;;;;;;5.82;3.67;;;;;;;9.30;100.00;102277.16;5335456;26;20070;-72
2024/04/13 05:10:47;;;;;;;8.77;4.20;;;;;;;9.33;100.00;102271.34;5337149;26;19997;-72
2024/04/13 05:13:16;;;;;;;9.07;3.88;;;;;;;9.35;100.00;102269.28;5344016;26;20010;-72
2024/04/13 05:15:42;;;;;;;7.82;4.18;;;;;;;9.40;100.00;102277.44;5371508;26;20005;-71
2024/04/13 05:18:08;;;;;;;5.85;3.85;;;;;;;9.45;100.00;102290.97;5332544;26;20589;-72
2024/04/13 05:20:36;;;;;;;7.60;4.50;;;;;;;9.50;100.00;102299.13;5342878;26;20477;-71
2024/04/13 05:23:05;;;;;;;7.57;4.10;;;;;;;9.54;100.00;102284.25;5340130;26;20009;-72
2024/04/13 05:25:31;;;;;;;8.57;4.57;;;;;;;9.69;100.00;102286.56;5341326;26;20005;-71
2024/04/13 05:27:57;;;;;;;6.82;3.92;;;;;;;9.75;100.00;102295.50;5333972;26;20767;-72
2024/04/13 05:30:23;;;;;;;7.05;4.55;;;;;;;9.82;100.00;102301.59;5332264;26;20060;-72
2024/04/13 05:32:49;;;;;;;7.10;3.92;;;;;;;9.87;100.00;102307.09;5331870;26;20082;-72
2024/04/13 05:35:18;;;;;;;9.07;4.50;;;;;;;9.93;100.00;102308.06;5339275;26;20516;-72
2024/04/13 05:37:44;;;;;;;9.00;4.30;;;;;;;9.99;100.00;102307.97;5331457;26;20004;-72
2024/04/13 05:40:13;;;;;;;7.72;4.38;;;;;;;10.05;100.00;102312.41;5337077;26;20540;-73
2024/04/13 05:42:39;;;;;;;6.65;4.20;;;;;;;10.11;100.00;102299.97;5357407;26;20340;-72
2024/04/13 05:45:05;;;;;;;10.55;4.28;;;;;;;10.22;100.00;102309.06;5329028;26;20011;-72
2024/04/13 05:47:32;;;;;;;;;;;;;;;10.33;100.00;102303.78;5331977;26;20382;-71
2024/04/13 05:49:59;;;;;;;7.68;3.85;;;;;;;10.45;100.00;102293.09;5334993;26;19937;-72
2024/04/13 05:52:24;;;;;;;8.98;4.68;;;;;;;10.62;100.00;102293.22;5353876;26;20001;-73
2024/04/13 05:54:50;;;;;;;8.48;4.75;;;;;;;10.86;100.00;102294.88;5334876;26;20082;-72
2024/04/13 05:57:16;;;;;;;7.90;4.50;;;;;;;11.05;100.00;102294.75;5360146;26;20052;-73
2024/04/13 05:59:42;;;;;;;8.73;4.13;;;;;;;11.15;100.00;102303.81;5325271;26;20012;-74
2024/04/13 06:02:08;;;;;;;9.15;4.30;;;;;;;11.23;100.00;102301.81;5305675;26;20016;-73
2024/04/13 06:04:35;;;;;;;8.48;5.30;;;;;;;11.28;100.00;102299.25;5332796;26;20020;-74
2024/04/13 06:07:01;;;;;;;7.40;4.47;;;;;;;11.36;100.00;102298.88;5333850;26;20000;-74
2024/04/13 06:09:27;;;;;;;8.70;4.20;;;;;;;11.43;100.00;102308.44;5362472;26;20004;-73
2024/04/13 06:11:53;;;;;;;7.28;4.40;;;;;;;11.54;100.00;102292.56;5332376;26;20013;-73
2024/04/13 06:14:19;;;;;;;6.43;4.32;;;;;;;11.62;100.00;102292.97;5338027;26;20020;-72
2024/04/13 06:16:45;;;;;;;7.47;4.38;;;;;;;11.69;100.00;102304.38;5333940;26;19997;-72
2024/04/13 06:19:13;;;;;;;8.40;4.15;;;;;;;11.74;100.00;102298.31;5333688;26;19997;-72
2024/04/13 06:21:39;;;;;;;7.03;4.45;;;;;;;11.82;100.00;102295.28;5332517;26;20430;-72
2024/04/13 06:24:06;;;;;;;5.85;3.72;;;;;;;11.90;100.00;102294.88;5302830;26;20018;-72
2024/04/13 06:26:31;;;;;;;7.90;4.07;;;;;;;11.99;100.00;102295.34;5356054;26;20020;-72
2024/04/13 06:28:58;;;;;;;7.50;3.83;;;;;;;12.09;100.00;102298.19;5366324;26;20005;-72
2024/04/13 06:31:23;;;;;;;7.22;4.18;;;;;;;12.21;100.00;102301.63;5331736;26;20019;-72
2024/04/13 06:33:49;;;;;;;6.70;3.50;;;;;;;12.33;100.00;102301.56;5310917;26;20000;-73
2024/04/13 06:36:15;;;;;;;8.82;3.72;;;;;;;12.41;100.00;102292.28;5335660;26;20008;-71
2024/04/13 06:38:42;;;;;;;8.15;3.67;;;;;;;12.51;100.00;102295.13;5331801;26;20095;-73
2024/04/13 06:41:07;;;;;;;9.45;4.00;;;;;;;12.57;100.00;102288.78;5331172;26;20075;-71
2024/04/13 06:43:33;;;;;;;7.63;4.10;;;;;;;12.65;100.00;102282.97;5330465;26;20076;-72
2024/04/13 06:45:58;;;;;;;7.40;3.78;;;;;;;12.72;100.00;102286.31;5334929;26;20086;-72
2024/04/13 06:48:24;;;;;;;6.20;3.65;;;;;;;12.80;100.00;102283.22;5336148;26;20020;-72
2024/04/13 06:50:49;;;;;;;;;;;;;;;12.85;100.00;102283.28;5333271;26;20545;-72
2024/04/13 06:53:18;;;;;;;7.80;3.30;;;;;;;12.97;100.00;102282.38;5331441;26;19933;-72
2024/04/13 06:55:45;;;;;;;9.15;4.07;;;;;;;13.06;100.00;102283.56;5359994;26;20012;-72
2024/04/13 06:58:11;;;;;;;8.05;4.00;;;;;;;13.16;100.00;102281.03;5272532;26;20015;-72
2024/04/13 07:00:36;;;;;;;;;;;;;;;13.23;100.00;102281.69;5343499;26;20020;-71
2024/04/13 07:03:02;;;;;;;7.05;3.30;;;;;;;13.27;100.00;102282.78;5332745;26;19932;-72
2024/04/13 07:05:28;;;;;;;11.43;3.88;;;;;;;13.34;100.00;102279.91;5327639;26;20482;-72
2024/04/13 07:07:54;;;;;;;;;;;;;;;13.37;100.00;102282.94;5303178;26;20377;-73
2024/04/13 07:10:20;;;;;;;8.20;3.28;;;;;;;13.41;100.00;102285.09;5341819;26;19930;-73
2024/04/13 07:12:45;;;;;;;7.32;3.55;;;;;;;13.42;100.00;102292.94;5333397;26;20000;-72
2024/04/13 07:15:11;;;;;;;7.00;3.03;;;;;;;13.44;100.00;102290.00;5329452;26;20009;-73
2024/04/13 07:17:38;;;;;;;7.15;3.72;;;;;;;13.51;100.00;102279.84;5331559;26;20004;-72
2024/04/13 07:20:06;;;;;;;5.75;3.40;;;;;;;13.63;100.00;102283.22;5331642;26;20013;-73
2024/04/13 07:22:32;;;;;;;6.97;3.33;;;;;;;13.71;100.00;102269.31;5342998;26;20005;-72
2024/04/13 07:24:57;;;;;;;;;;;;;;;13.82;100.00;102284.53;5335641;26;20016;-72
2024/04/13 07:27:23;;;;;;;7.70;3.40;;;;;;;13.84;100.00;102281.56;5364055;26;20268;-72
2024/04/13 07:29:48;;;;;;;6.90;3.15;;;;;;;13.93;100.00;102283.53;5335481;26;20005;-72
2024/04/13 07:32:14;;;;;;;;;;;;;;;13.98;100.00;102285.47;5338220;26;20413;-72
2024/04/13 07:34:41;;;;;;;5.65;3.03;;;;;;;14.02;100.00;102286.59;5338937;26;20639;-73
2024/04/13 07:37:07;;;;;;;6.50;3.20;;;;;;;14.04;100.00;102275.56;5333463;26;20012;-72
2024/04/13 07:39:33;;;;;;;;;;;;;;;14.08;100.00;102282.06;5306698;26;20015;-74
2024/04/13 07:41:59;;;;;;;5.10;2.67;;;;;;;14.09;100.00;102287.22;5335470;26;19933;-72
2024/04/13 07:44:25;;;;;;;;;;;;;;;14.13;100.00;102287.50;5333018;26;20679;-72
2024/04/13 07:46:50;;;;;;;7.90;3.13;;;;;;;14.20;100.00;102280.81;5332474;26;20384;-71
2024/04/13 07:49:16;;;;;;;;;;;;;;;14.28;100.00;102278.72;5359300;26;20029;-74
2024/04/13 07:51:43;;;;;;;6.63;3.42;;;;;;;14.34;100.00;102283.91;5332021;26;19968;-72
2024/04/13 07:54:08;;;;;;;8.57;3.42;;;;;;;14.45;100.00;102277.53;5327804;26;20041;-72
2024/04/13 07:56:34;;;;;;;;;;;;;;;14.58;100.00;102279.00;5329249;26;20107;-72
2024/04/13 07:58:59;;;;;;;10.18;3.83;;;;;;;14.72;100.00;102279.38;5329221;26;20333;-73
2024/04/13 08:01:25;;;;;;;;;;;;;;;14.81;100.00;102283.19;5332437;26;20107;-74
2024/04/13 08:03:50;;;;;;;6.05;3.22;;;;;;;14.87;100.00;102287.53;5328507;26;19960;-73
2024/04/13 08:06:16;;;;;;;7.50;3.35;;;;;;;14.97;100.00;102295.72;5327860;26;19997;-73
2024/04/13 08:08:43;;;;;;;8.40;3.05;;;;;;;15.08;100.00;102285.78;5348260;26;20470;-72
2024/04/13 08:11:09;;;;;;;6.57;2.97;;;;;;;15.18;100.00;102285.84;5338896;26;20008;-72
2024/04/13 08:13:34;;;;;;;;;;;;;;;15.22;100.00;102289.63;5276150;26;20001;-71
2024/04/13 08:16:05;;;;;;;5.30;2.97;;;;;;;15.23;100.00;102282.31;5333161;26;19926;-73
2024/04/13 08:18:31;;;;;;;9.10;3.50;;;;;;;15.22;100.00;102289.63;5331014;26;20486;-70
2024/04/13 08:20:56;;;;;;;;;;;;;;;15.29;100.00;102283.97;5335295;26;20051;-72
2024/04/13 08:23:23;;;;;;;4.95;2.60;;;;;;;15.36;100.00;102281.84;5338878;26;19926;-72
2024/04/13 08:25:49;;;;;;;;;;;;;;;15.42;100.00;102280.78;5340645;26;20008;-72
2024/04/13 08:28:15;;;;;;;5.93;3.55;;;;;;;15.44;100.00;102281.31;5367972;26;19938;-72
2024/04/13 08:30:41;;;;;;;7.28;3.20;;;;;;;15.51;100.00;102273.81;5338120;26;20001;-73
2024/04/13 08:33:07;;;;;;;5.28;2.65;;;;;;;15.65;100.00;102270.66;5336996;26;20009;-73
2024/04/13 08:35:32;;;;;;;;;;;;;;;15.73;100.00;102272.81;5340557;26;20106;-72
2024/04/13 08:37:59;;;;;;;6.30;3.40;;;;;;;15.77;100.00;102272.00;5301704;26;19936;-76
2024/04/13 08:40:24;;;;;;;9.75;3.30;;;;;;;15.78;100.00;102275.50;5312578;26;20005;-75
2024/04/13 08:42:52;;;;;;;;;;;;;;;15.92;100.00;102271.25;5306489;26;20016;-73
2024/04/13 08:45:17;;;;;;;7.10;3.55;;;;;;;15.99;100.00;102265.56;5335862;26;19935;-74
2024/04/13 08:47:45;;;;;;;;;;;;;;;16.03;100.00;102261.25;5275750;26;20001;-74
2024/04/13 08:50:11;;;;;;;6.80;3.35;;;;;;;16.15;100.00;102255.59;5342312;26;19933;-76
2024/04/13 08:52:37;;;;;;;5.35;3.45;;;;;;;16.25;100.00;102269.09;5334076;26;20461;-74
2024/04/13 08:55:05;;;;;;;4.78;2.58;;;;;;;16.30;100.00;102266.38;5335280;26;20001;-73
2024/04/13 08:57:33;;;;;;;8.35;3.17;;;;;;;16.30;100.00;102267.19;5316562;26;20001;-74
2024/04/13 09:00:04;;;;;;;6.25;2.88;;;;;;;16.30;100.00;102271.78;5312570;26;20358;-73
2024/04/13 09:02:33;;;;;;;7.80;3.15;;;;;;;16.24;100.00;102259.34;5333327;26;20111;-74
2024/04/13 09:05:02;;;;;;;5.93;3.17;;;;;;;16.26;100.00;102265.31;5333445;26;20004;-73
2024/04/13 09:07:31;;;;;;;8.02;3.40;;;;;;;16.35;100.00;102274.50;5305287;26;20024;-74
2024/04/13 09:09:59;;;;;;;9.20;2.90;;;;;;;16.33;100.00;102276.66;5339751;26;20019;-73
2024/04/13 09:12:25;;;;;;;5.65;2.80;;;;;;;16.36;100.00;102268.81;5332418;26;20023;-74
2024/04/13 09:14:53;;;;;;;7.00;3.30;;;;;;;16.36;100.00;102270.72;5356913;26;20012;-74
2024/04/13 09:17:20;;;;;;;7.95;3.05;;;;;;;16.44;100.00;102256.63;5298177;26;20016;-74
2024/04/13 09:19:47;;;;;;;4.75;2.85;;;;;;;16.56;100.00;102268.00;5332879;26;20020;-74
2024/04/13 09:22:13;;;;;;;6.07;2.63;;;;;;;16.73;100.00;102265.03;5339275;26;20005;-73
2024/04/13 09:24:40;;;;;;;5.53;2.75;;;;;;;16.81;100.00;102255.53;5333871;26;20454;-74
2024/04/13 09:27:16;;;;;;;5.38;2.63;;;;;;;16.88;100.00;102250.66;5337253;26;20005;-74
2024/04/13 09:29:42;;;;;;;6.82;3.05;;;;;;;17.02;100.00;102242.75;5331886;26;20020;-73
2024/04/13 09:32:08;;;;;;;5.90;2.83;;;;;;;17.11;100.00;102241.09;5360199;26;20085;-74
2024/04/13 09:34:37;;;;;;;5.63;2.65;;;;;;;17.18;100.00;102245.09;5324117;26;20016;-74
2024/04/13 09:37:09;;;;;;;4.78;2.50;;;;;;;17.27;100.00;102236.41;5334952;26;20020;-73
2024/04/13 09:40:01;;;;;;;5.40;2.97;;;;;;;17.44;100.00;102226.84;5359167;26;20474;-73
2024/04/13 09:42:28;;;;;;;5.25;2.53;;;;;;;17.42;100.00;102230.94;5305895;26;20008;-75
2024/04/13 09:45:02;;;;;;;5.50;2.78;;;;;;;17.45;100.00;102230.34;5331951;26;20019;-72
2024/04/13 09:47:32;;;;;;;6.78;2.88;;;;;;;17.58;100.00;102220.81;5332259;26;20077;-73
2024/04/13 09:49:58;;;;;;;6.93;2.25;;;;;;;17.67;100.00;102227.22;5361660;26;20006;-72
2024/04/13 09:52:24;;;;;;;6.15;2.90;;;;;;;17.79;100.00;102233.16;5336277;26;20028;-73
2024/04/13 09:54:51;;;;;;;5.80;2.83;;;;;;;17.70;100.00;102235.63;5334540;26;20009;-75
2024/04/13 09:57:18;;;;;;;4.75;2.35;;;;;;;17.85;100.00;102231.22;5334604;26;20086;-74
2024/04/13 09:59:47;;;;;;;3.92;2.38;;;;;;;18.04;100.00;102221.31;5341233;26;20497;-74
2024/04/13 10:02:13;;;;;;;6.75;3.25;;;;;;;17.99;100.00;102224.06;5328964;26;20310;-73
2024/04/13 10:04:39;;;;;;;6.18;2.47;;;;;;;18.11;100.00;102219.09;5367031;26;20730;-74
2024/04/13 10:07:07;;;;;;;6.05;2.10;;;;;;;18.25;100.00;102228.16;5339212;26;20079;-75
2024/04/13 10:09:35;;;;;;;6.93;2.33;;;;;;;18.43;100.00;102225.84;5295280;26;20005;-74
2024/04/13 10:12:03;;;;;;;6.90;2.38;;;;;;;18.46;100.00;102225.25;5341202;26;20468;-73
2024/04/13 10:14:30;;;;;;;8.15;2.22;;;;;;;18.51;100.00;102217.88;5363543;26;20008;-74
2024/04/13 10:17:01;;;;;;;4.85;2.67;;;;;;;18.50;100.00;102204.63;5324388;26;20010;-75
2024/04/13 10:19:28;;;;;;;5.43;1.95;;;;;;;18.50;100.00;102196.47;5356018;26;20078;-73
2024/04/13 10:22:01;;;;;;;4.88;1.90;;;;;;;18.45;100.00;102196.53;5300654;26;20006;-74
2024/04/13 10:24:28;;;;;;;7.40;2.47;;;;;;;18.44;100.00;102198.44;5330541;26;20024;-74
2024/04/13 10:27:04;;;;;;;6.38;2.53;;;;;;;18.31;100.00;102198.31;5338580;26;20001;-74
2024/04/13 10:29:37;;;;;;;4.75;2.20;;;;;;;18.24;100.00;102185.88;5339772;26;20016;-73
2024/04/13 10:32:17;;;;;;;4.30;1.75;;;;;;;18.32;100.00;102189.06;5302184;26;20762;-73
2024/04/13 10:34:44;;;;;;;7.43;2.58;;;;;;;18.37;100.00;102189.03;5334174;26;20180;-73
2024/04/13 10:37:32;;;;;;;5.28;1.73;;;;;;;18.46;100.00;102176.44;5359947;26;20051;-74
2024/04/13 10:40:01;;;;;;;4.15;1.60;;;;;;;18.51;100.00;102185.34;5337299;26;20008;-73
2024/04/13 10:42:34;;;;;;;3.42;2.00;;;;;;;18.52;100.00;102175.28;5334790;26;20013;-74
2024/04/13 10:44:59;;;;;;;4.82;2.15;;;;;;;18.57;100.00;102188.00;5363344;26;20023;-72
2024/04/13 10:47:26;;;;;;;4.40;2.00;;;;;;;18.62;100.00;102183.31;5337831;26;20001;-73
2024/04/13 10:49:54;;;;;;;4.53;2.20;;;;;;;18.68;100.00;102179.47;5359284;26;20019;-73
2024/04/13 10:52:20;;;;;;;7.63;2.45;;;;;;;18.74;100.00;102178.31;5331389;26;20497;-73
2024/04/13 10:54:59;;;;;;;4.90;1.90;;;;;;;18.75;100.00;102170.97;5335759;26;20729;-73
2024/04/13 10:57:26;;;;;;;4.53;2.25;;;;;;;18.79;100.00;102177.44;5334949;26;20005;-75
2024/04/13 10:59:51;;;;;;;5.72;2.10;;;;;;;18.83;100.00;102181.19;5333030;26;20008;-75
2024/04/13 11:02:18;;;;;;;5.07;1.92;;;;;;;18.69;100.00;102180.28;5332941;26;20009;-76
2024/04/13 11:04:44;;;;;;;5.78;2.15;;;;;;;18.72;100.00;102183.22;5369035;26;20005;-76
2024/04/13 11:07:13;;;;;;;3.60;1.52;;;;;;;18.80;100.00;102174.44;5342724;26;20008;-74
2024/04/13 11:09:40;;;;;;;4.80;2.08;;;;;;;18.89;100.00;102179.22;5341217;26;20078;-74
2024/04/13 11:12:12;;;;;;;9.63;2.55;;;;;;;18.95;100.00;102181.56;5356445;26;20504;-73
2024/04/13 11:14:38;;;;;;;4.53;1.88;;;;;;;19.09;100.00;102168.91;5330370;26;20478;-76
2024/04/13 11:17:05;;;;;;;3.25;1.70;;;;;;;19.22;100.00;102166.56;5331730;26;20016;-74
2024/04/13 11:19:31;;;;;;;4.43;1.80;;;;;;;19.30;100.00;102171.34;5358859;26;20009;-73
2024/04/13 11:21:59;;;;;;;7.35;2.20;;;;;;;19.45;100.00;102178.47;5337577;26;20005;-73
2024/04/13 11:24:26;;;;;;;4.90;1.95;;;;;;;19.57;100.00;102168.78;5360110;26;20017;-74